Terminal Aerodrome Forecast
Issued by NWS Wilmington, NC

Home | Current Version | Previous Version | Text Only | Print | Product List | Glossary On
Versions: 1 2 3 4 5 6 7 8 9 10 11 12 13
690
FTUS42 KILM 242327
TAFILM
TAF
KILM 242327Z 2500/2524 VRB03KT P6SM SKC
     FM250800 00000KT 1/2SM FG VV002
     FM251400 20004KT P6SM FEW004
     FM251600 21008KT P6SM FEW250
     FM252100 25011G18KT P6SM SCT050=

USA.gov is the U.S. government's official web portal to all federal, state and local government web resources and services.